Cheboygan, MI

7:39 PM EST on February 27, 2015 (GMT -0500)
Wildcat North | Change Station
CLOSE
Current Station
Personal Weather Station
Location: Cheboygan, MI
Elevation: 640 ft
Nearby Weather Stations

Elev 640 ft 45.58 °N, 84.46 °W | Updated 27 seconds ago

Clear
Clear
10.0 °F
Feels Like 10 °F
N
0.0
Wind Variable Wind from SW
Gusts 3.0 mph

Today
High -- | Low -- °F
--% Chance of Precip.
Yesterday
High -- | Low -- °F
Precip. -- in
7:20 AM 6:21 PM
Waxing Gibbous, 73% visible
Pressure 30.48 in
Visibility 10.0 miles
Clouds Clear
Windchill 10 °F
Dew Point 4 °F
Humidity 77%
Rainfall 0.00 in
Snow Depth Not available.
UV 0.0 out of 12
Pollen .30 out of 12
Air Quality Not available.
Flu Activity Not available.
METAR KSLH 280038Z AUTO 00000KT 10SM CLR M12/M16 A3048 RMK AO2 T11291168

More Conditions Fewer Conditions

Pressure 30.48 in
Visibility 10.0 miles
Clouds Clear
Windchill 10 °F
Dew Point 4 °F
Humidity 77%
Rainfall 0.00 in
Snow Depth Not available.
UV 0.0 out of 12
Pollen .30 out of 12
Air Quality Not available.
Flu Activity Not available.
METAR KSLH 280038Z AUTO 00000KT 10SM CLR M12/M16 A3048 RMK AO2 T11291168

More Conditions Fewer Conditions

Nowcast | as of 6:00 PM EST on February 27, 2015

At 7 PM...mostly clear. Temperature 7 above. Southwest winds 7 mph. At 9 PM...mostly clear. Temperature zero. Light winds. At 11 PM...clear. Temperature 5 below. Southwest winds 6 mph. At 1 am...clear. Temperature 5 below. Southwest winds 8 mph.

×

10-Day Weather Forecast

Almanac

Astronomy

Feb. 27, 2015 Rise Set
Actual Time
Civil Twilight
Nautical Twilight
Astronomical Twilight
Moon
Length of Visible Light
Length of Day
Tomorrow will be .
, % of the Moon is Illuminated

Today's Extremes

State Highs State Lows

Community

WunderPhotos

Upload Photos

1,800,904 photos uploaded!

WunderBlogs® & News

Nearby

Air Quality

  Air Quality AQ Index Pollutant
Not available.

Snow Depth

Station Depth Elevation

Earthquake Activity

City Distance Mag. Time & Date
Minimum magnitude displayed is 2.5.

Coastal Water Temperatures

Place Temperature

Nearby Weather Stations